createdAt,value
2022-12-14T00:01:17.710Z,20.70
2022-12-14T00:03:45.248Z,21.13
2022-12-14T00:06:22.628Z,21.00
2022-12-14T00:08:50.954Z,23.40
2022-12-14T00:11:19.894Z,23.90
2022-12-14T00:13:49.013Z,20.37
2022-12-14T00:16:17.922Z,22.23
2022-12-14T00:18:45.170Z,22.43
2022-12-14T00:21:13.644Z,20.67
2022-12-14T00:23:42.237Z,21.60
2022-12-14T00:26:29.068Z,23.37
2022-12-14T00:28:58.059Z,21.53
2022-12-14T00:31:25.279Z,23.33
2022-12-14T00:33:52.538Z,22.00
2022-12-14T00:36:19.500Z,22.97
2022-12-14T00:38:46.187Z,23.30
2022-12-14T00:41:13.180Z,21.30
2022-12-14T00:43:39.909Z,22.50
2022-12-14T00:46:06.976Z,23.17
2022-12-14T00:48:33.685Z,21.73
2022-12-14T00:51:00.527Z,19.33
2022-12-14T00:53:27.180Z,23.33
2022-12-14T00:55:53.931Z,21.87
2022-12-14T00:58:22.391Z,24.80
2022-12-14T01:00:59.354Z,23.50
2022-12-14T01:03:26.378Z,22.97
2022-12-14T01:05:53.326Z,21.83
2022-12-14T01:08:20.513Z,20.67
2022-12-14T01:10:47.126Z,22.93
2022-12-14T01:13:13.764Z,21.03
2022-12-14T01:15:40.411Z,22.10
2022-12-14T01:18:07.168Z,24.07
2022-12-14T01:20:33.783Z,22.00
2022-12-14T01:23:00.466Z,19.03
2022-12-14T01:25:27.280Z,22.20
2022-12-14T01:27:53.954Z,19.27
2022-12-14T01:30:21.102Z,20.80
2022-12-14T01:32:47.757Z,21.47
2022-12-14T01:35:14.747Z,20.90
2022-12-14T01:37:41.414Z,20.63
2022-12-14T01:40:08.715Z,21.97
2022-12-14T01:42:36.748Z,24.00
2022-12-14T01:45:04.724Z,20.03
2022-12-14T01:47:40.979Z,19.90
2022-12-14T01:50:42.952Z,19.83
2022-12-14T01:53:16.481Z,20.67
2022-12-14T01:55:48.713Z,22.70
2022-12-14T01:58:22.203Z,22.10
2022-12-14T02:00:49.936Z,19.93
2022-12-14T02:03:18.362Z,20.10
2022-12-14T02:05:48.286Z,20.10
2022-12-14T02:08:16.196Z,22.37
2022-12-14T02:10:44.481Z,23.73
2022-12-14T02:13:31.777Z,20.93
2022-12-14T02:15:58.712Z,20.40
2022-12-14T02:18:30.126Z,19.03
2022-12-14T02:21:45.100Z,20.37
2022-12-14T02:24:28.356Z,22.20
2022-12-14T02:27:31.642Z,19.87
2022-12-14T02:30:06.475Z,21.73
2022-12-14T02:32:33.480Z,20.03
2022-12-14T02:35:21.340Z,19.77
2022-12-14T02:38:22.660Z,18.77
2022-12-14T02:41:11.211Z,19.90
2022-12-14T02:44:02.655Z,19.40
2022-12-14T02:46:34.736Z,22.03
2022-12-14T02:49:10.970Z,20.30
2022-12-14T02:51:44.155Z,20.87
2022-12-14T02:54:19.064Z,20.83
2022-12-14T02:56:51.846Z,21.10
2022-12-14T02:59:18.791Z,22.47
2022-12-14T03:01:47.334Z,20.23
2022-12-14T03:04:14.941Z,19.33
2022-12-14T03:06:51.854Z,20.77
2022-12-14T03:09:19.167Z,21.67
2022-12-14T03:11:56.404Z,20.80
2022-12-14T03:14:36.252Z,21.00
2022-12-14T03:17:21.468Z,21.90
2022-12-14T03:19:53.245Z,24.83
2022-12-14T03:22:25.510Z,21.43
2022-12-14T03:24:59.135Z,21.83
2022-12-14T03:27:31.499Z,22.73
2022-12-14T03:30:00.978Z,20.73
2022-12-14T03:32:29.856Z,24.93
2022-12-14T03:35:06.343Z,21.30
2022-12-14T03:37:39.243Z,20.87
2022-12-14T03:40:10.959Z,22.97
2022-12-14T03:43:01.105Z,23.97
2022-12-14T03:45:35.581Z,24.10
2022-12-14T03:48:10.740Z,23.47
2022-12-14T03:50:53.629Z,23.27
2022-12-14T03:53:59.136Z,24.90
2022-12-14T03:56:41.252Z,23.73
2022-12-14T03:59:24.331Z,22.63
2022-12-14T04:02:17.224Z,24.57
2022-12-14T04:04:57.568Z,23.53
2022-12-14T04:07:30.872Z,22.73
2022-12-14T04:10:32.031Z,22.47
2022-12-14T04:13:38.155Z,21.97
2022-12-14T04:16:30.412Z,23.97
2022-12-14T04:19:00.786Z,24.37
2022-12-14T04:21:39.959Z,24.93
2022-12-14T04:24:34.760Z,22.10
2022-12-14T04:27:06.459Z,22.00
2022-12-14T04:29:52.847Z,20.10
2022-12-14T04:32:21.347Z,22.67
2022-12-14T04:34:52.093Z,25.43
2022-12-14T04:37:21.177Z,23.20
2022-12-14T04:39:53.071Z,23.03
2022-12-14T04:42:24.053Z,24.37
2022-12-14T04:44:53.930Z,23.97
2022-12-14T04:47:23.825Z,23.97
2022-12-14T04:50:10.875Z,23.97
2022-12-14T04:52:44.944Z,24.47
2022-12-14T04:55:51.124Z,26.20
2022-12-14T04:58:25.357Z,25.60
2022-12-14T05:01:16.836Z,25.93
2022-12-14T05:04:18.502Z,22.83
2022-12-14T05:06:53.922Z,26.60
2022-12-14T05:09:33.486Z,27.37
2022-12-14T05:12:13.164Z,24.10
2022-12-14T05:14:52.581Z,24.63
2022-12-14T05:17:19.376Z,23.53
2022-12-14T05:19:49.980Z,27.03
2022-12-14T05:22:17.447Z,23.87
2022-12-14T05:24:44.067Z,25.93
2022-12-14T05:27:10.713Z,25.27
2022-12-14T05:29:37.312Z,26.30
2022-12-14T05:32:04.720Z,25.30
2022-12-14T05:34:31.497Z,25.33
2022-12-14T05:36:58.276Z,23.37
2022-12-14T05:39:25.104Z,24.70
2022-12-14T05:41:53.385Z,23.13
2022-12-14T05:44:20.428Z,24.73
2022-12-14T05:46:47.181Z,25.10
2022-12-14T05:49:14.056Z,23.67
2022-12-14T05:51:40.784Z,22.00
2022-12-14T05:54:07.424Z,25.93
2022-12-14T05:56:34.034Z,28.87
2022-12-14T05:59:00.751Z,24.77
2022-12-14T06:01:27.414Z,27.43
2022-12-14T06:03:54.298Z,26.10
2022-12-14T06:06:21.365Z,26.13
2022-12-14T06:08:48.576Z,24.90
2022-12-14T06:11:17.748Z,25.20
2022-12-14T06:13:45.275Z,26.27
2022-12-14T06:16:21.683Z,25.37
2022-12-14T06:18:50.099Z,24.40
2022-12-14T06:21:18.323Z,25.03
2022-12-14T06:23:45.337Z,24.37
2022-12-14T06:26:13.095Z,26.43
2022-12-14T06:28:39.916Z,26.30
2022-12-14T06:31:06.925Z,26.13
2022-12-14T06:33:35.162Z,25.27
2022-12-14T06:36:02.968Z,24.63
2022-12-14T06:38:29.924Z,22.50
2022-12-14T06:40:56.536Z,23.23
2022-12-14T06:43:26.891Z,24.60
2022-12-14T06:45:53.986Z,26.07
2022-12-14T06:48:20.847Z,24.87
2022-12-14T06:50:47.511Z,24.87
2022-12-14T06:53:14.263Z,24.93
2022-12-14T06:55:41.013Z,23.70
2022-12-14T06:58:11.499Z,22.07
2022-12-14T07:00:38.199Z,24.10
2022-12-14T07:03:04.927Z,23.73
2022-12-14T07:05:31.611Z,24.10
2022-12-14T07:07:58.195Z,22.80
2022-12-14T07:10:24.896Z,23.37
2022-12-14T07:12:51.719Z,23.60
2022-12-14T07:15:18.388Z,22.27
2022-12-14T07:17:45.052Z,21.80
2022-12-14T07:20:11.989Z,26.00
2022-12-14T07:22:39.100Z,23.97
2022-12-14T07:25:06.233Z,23.63
2022-12-14T07:27:32.980Z,25.10
2022-12-14T07:29:59.591Z,22.33
2022-12-14T07:32:26.275Z,22.33
2022-12-14T07:34:52.838Z,22.43
2022-12-14T07:37:20.525Z,22.17
2022-12-14T07:39:47.204Z,22.30
2022-12-14T07:42:14.089Z,23.37
2022-12-14T07:44:47.122Z,23.30
2022-12-14T07:47:16.586Z,23.83
2022-12-14T07:49:44.042Z,24.67
2022-12-14T07:52:10.685Z,24.57
2022-12-14T07:54:37.393Z,25.47
2022-12-14T07:57:04.079Z,24.90
2022-12-14T07:59:30.826Z,24.23
2022-12-14T08:01:57.572Z,25.83
2022-12-14T08:04:24.312Z,26.87
2022-12-14T08:06:51.038Z,24.70
2022-12-14T08:09:18.038Z,24.90
2022-12-14T08:11:44.735Z,26.80
2022-12-14T08:14:19.405Z,25.70
2022-12-14T08:16:47.678Z,27.83
2022-12-14T08:19:14.938Z,24.90
2022-12-14T08:21:41.663Z,29.83
2022-12-14T08:24:10.875Z,26.27
2022-12-14T08:26:37.527Z,25.47
2022-12-14T08:29:04.981Z,26.47
2022-12-14T08:31:32.798Z,25.00
2022-12-14T08:34:00.574Z,24.20
2022-12-14T08:36:33.991Z,22.63
2022-12-14T08:39:03.501Z,26.00
2022-12-14T08:41:30.440Z,25.03
2022-12-14T08:43:59.134Z,24.07
2022-12-14T08:46:27.203Z,22.77
2022-12-14T08:48:55.308Z,24.33
2022-12-14T08:51:23.404Z,24.17
2022-12-14T08:53:50.431Z,24.70
2022-12-14T08:56:19.755Z,25.43
2022-12-14T08:58:46.803Z,25.23
2022-12-14T09:01:19.994Z,25.37
2022-12-14T09:03:48.739Z,24.63
2022-12-14T09:06:27.817Z,25.93
2022-12-14T09:08:55.507Z,23.77
2022-12-14T09:11:22.345Z,24.13
2022-12-14T09:13:49.217Z,24.27
2022-12-14T09:16:20.702Z,27.20
2022-12-14T09:18:48.846Z,25.67
2022-12-14T09:21:15.828Z,24.10
2022-12-14T09:23:42.538Z,28.37
2022-12-14T09:26:18.478Z,26.03
2022-12-14T09:28:48.166Z,24.10
2022-12-14T09:31:16.199Z,24.57
2022-12-14T09:33:42.860Z,25.40
2022-12-14T09:36:15.600Z,26.63
2022-12-14T09:38:50.616Z,24.33
2022-12-14T09:41:33.805Z,24.33
2022-12-14T09:44:25.577Z,26.00
2022-12-14T09:47:13.440Z,24.83
2022-12-14T09:49:44.718Z,25.80
2022-12-14T09:52:18.632Z,26.20
2022-12-14T09:54:49.835Z,26.90
2022-12-14T09:57:32.855Z,26.83
2022-12-14T09:59:59.478Z,24.87
2022-12-14T10:02:43.757Z,22.97
2022-12-14T10:05:24.345Z,23.43
2022-12-14T10:08:08.603Z,26.13
2022-12-14T10:10:48.673Z,25.03
2022-12-14T10:13:35.532Z,24.67
2022-12-14T10:16:08.099Z,23.60
2022-12-14T10:19:07.255Z,25.40
2022-12-14T10:21:59.912Z,25.23
2022-12-14T10:24:43.578Z,24.43
2022-12-14T10:27:18.014Z,26.13
2022-12-14T10:29:57.081Z,24.90
2022-12-14T10:32:35.786Z,26.87
2022-12-14T10:35:13.723Z,25.03
2022-12-14T10:37:44.514Z,25.37
2022-12-14T10:40:33.111Z,29.97
2022-12-14T10:43:07.630Z,26.97
2022-12-14T10:45:42.489Z,26.67
2022-12-14T10:48:46.380Z,26.40
2022-12-14T10:51:18.274Z,27.33
2022-12-14T10:53:55.226Z,27.60
2022-12-14T10:56:28.646Z,23.90
2022-12-14T10:59:21.296Z,24.17
2022-12-14T11:02:10.216Z,23.37
2022-12-14T11:05:12.404Z,25.27
2022-12-14T11:07:40.500Z,25.93
2022-12-14T11:10:24.074Z,28.07
2022-12-14T11:13:06.694Z,29.30
2022-12-14T11:15:36.928Z,27.90
2022-12-14T11:18:11.972Z,25.53
2022-12-14T11:20:59.306Z,26.67
2022-12-14T11:23:27.433Z,27.93
2022-12-14T11:25:55.980Z,33.80
2022-12-14T11:28:31.318Z,30.20
2022-12-14T11:31:05.285Z,30.37
2022-12-14T11:33:38.662Z,29.50
2022-12-14T11:36:06.793Z,29.87
2022-12-14T11:38:33.598Z,32.67
2022-12-14T11:41:07.262Z,26.23
2022-12-14T11:43:40.650Z,26.67
2022-12-14T11:46:07.722Z,28.10
2022-12-14T11:48:36.923Z,26.17
2022-12-14T11:51:13.751Z,25.90
2022-12-14T11:53:41.200Z,28.97
2022-12-14T11:56:13.096Z,26.97
2022-12-14T11:58:47.809Z,29.63
2022-12-14T12:01:16.921Z,30.53
2022-12-14T12:03:51.683Z,28.90
2022-12-14T12:06:23.302Z,26.37
2022-12-14T12:08:55.922Z,28.93
2022-12-14T12:11:27.212Z,28.13
2022-12-14T12:13:59.790Z,26.30
2022-12-14T12:16:27.405Z,27.10
2022-12-14T12:19:11.252Z,29.37
2022-12-14T12:21:41.791Z,26.70
2022-12-14T12:24:25.067Z,27.23
2022-12-14T12:26:57.350Z,24.13
2022-12-14T12:29:48.719Z,32.77
2022-12-14T12:32:27.562Z,25.10
2022-12-14T12:35:01.375Z,28.40
2022-12-14T12:37:39.662Z,26.77
2022-12-14T12:40:17.271Z,27.67
2022-12-14T12:42:48.667Z,28.50
2022-12-14T12:45:27.253Z,27.90
2022-12-14T12:48:01.011Z,30.80
2022-12-14T12:50:34.639Z,30.43
2022-12-14T12:53:04.313Z,30.00
2022-12-14T12:55:35.711Z,33.37
2022-12-14T12:58:03.251Z,28.53
2022-12-14T13:00:30.726Z,29.73
2022-12-14T13:03:20.820Z,31.57
2022-12-14T13:05:48.905Z,29.63
2022-12-14T13:08:33.052Z,32.10
2022-12-14T13:11:25.216Z,29.43
2022-12-14T13:13:52.101Z,27.37
2022-12-14T13:16:47.946Z,29.40
2022-12-14T13:19:54.840Z,30.43
2022-12-14T13:22:27.955Z,27.37
2022-12-14T13:24:59.536Z,30.57
2022-12-14T13:27:35.551Z,27.03
2022-12-14T13:30:26.393Z,29.27
2022-12-14T13:33:09.171Z,26.13
2022-12-14T13:35:57.563Z,30.87
2022-12-14T13:38:55.221Z,30.13
2022-12-14T13:41:27.664Z,29.77
2022-12-14T13:44:17.502Z,30.73
2022-12-14T13:46:44.272Z,30.13
2022-12-14T13:49:19.808Z,30.80
2022-12-14T13:51:50.362Z,32.53
2022-12-14T13:54:19.722Z,31.73
2022-12-14T13:56:46.445Z,36.20
2022-12-14T13:59:29.130Z,30.27
2022-12-14T14:01:58.425Z,30.77
2022-12-14T14:04:27.778Z,30.53
2022-12-14T14:06:56.422Z,29.80
2022-12-14T14:09:25.963Z,27.50
2022-12-14T14:12:40.471Z,31.33
2022-12-14T14:15:26.021Z,30.67
2022-12-14T14:17:53.639Z,29.83
2022-12-14T14:21:05.264Z,30.37
2022-12-14T14:23:32.668Z,31.33
2022-12-14T14:26:19.485Z,38.60
2022-12-14T14:28:49.537Z,43.97
2022-12-14T14:31:16.323Z,32.93
2022-12-14T14:33:54.866Z,40.73
2022-12-14T14:36:26.545Z,32.57
2022-12-14T14:38:54.845Z,31.27
2022-12-14T14:41:27.904Z,30.97
2022-12-14T14:43:58.287Z,29.90
2022-12-14T14:46:43.193Z,32.83
2022-12-14T14:49:26.059Z,32.93
2022-12-14T14:51:52.725Z,32.30
2022-12-14T14:57:32.928Z,33.73
2022-12-14T15:00:02.509Z,34.90
2022-12-14T15:02:34.472Z,32.47
2022-12-14T15:05:24.819Z,32.20
2022-12-14T15:07:48.237Z,33.37
2022-12-14T15:10:28.781Z,32.37
2022-12-14T15:13:00.324Z,34.50
2022-12-14T15:15:40.113Z,34.17
2022-12-14T15:18:28.703Z,30.67
2022-12-14T15:21:04.279Z,35.57
2022-12-14T15:23:50.804Z,31.23
2022-12-14T15:26:27.341Z,43.20
2022-12-14T15:29:00.412Z,33.20
2022-12-14T15:31:29.866Z,41.60
2022-12-14T15:33:57.194Z,38.50
2022-12-14T15:36:29.837Z,39.83
2022-12-14T15:38:58.102Z,37.40
2022-12-14T15:41:27.790Z,35.90
2022-12-14T15:43:59.654Z,38.47
2022-12-14T15:46:33.448Z,37.63
2022-12-14T15:49:07.067Z,33.80
2022-12-14T15:51:36.565Z,30.27
2022-12-14T15:54:05.304Z,32.83
2022-12-14T15:56:38.799Z,31.63
2022-12-14T15:59:13.920Z,34.77
2022-12-14T16:01:53.604Z,30.47
2022-12-14T16:04:23.589Z,32.37
2022-12-14T16:07:18.102Z,34.20
2022-12-14T16:09:50.318Z,33.47
2022-12-14T16:12:22.961Z,35.63
2022-12-14T16:14:54.386Z,37.43
2022-12-14T16:17:25.715Z,40.50
2022-12-14T16:19:59.954Z,39.40
2022-12-14T16:22:32.389Z,40.97
2022-12-14T16:25:04.058Z,38.40
2022-12-14T16:27:31.001Z,39.30
2022-12-14T16:30:17.834Z,37.23
2022-12-14T16:32:46.320Z,36.03
2022-12-14T16:35:20.109Z,39.53
2022-12-14T16:37:49.507Z,39.07
2022-12-14T16:40:35.691Z,38.93
2022-12-14T16:43:03.988Z,35.67
2022-12-14T16:45:36.692Z,37.40
2022-12-14T16:48:08.679Z,37.73
2022-12-14T16:53:26.925Z,40.87
2022-12-14T16:56:06.904Z,47.97
2022-12-14T16:58:35.137Z,39.70
2022-12-14T17:01:06.044Z,40.57
2022-12-14T17:03:33.633Z,40.67
2022-12-14T17:06:02.675Z,44.80
2022-12-14T17:08:29.514Z,46.77
2022-12-14T17:10:56.185Z,64.10
2022-12-14T17:13:23.103Z,42.80
2022-12-14T17:16:01.205Z,52.23
2022-12-14T17:18:48.120Z,40.50
2022-12-14T17:21:22.439Z,38.43
2022-12-14T17:23:49.304Z,39.57
2022-12-14T17:26:22.240Z,41.23
2022-12-14T17:28:49.203Z,37.53
2022-12-14T17:31:18.216Z,37.37
2022-12-14T17:33:44.920Z,36.13
2022-12-14T17:36:11.610Z,40.43
2022-12-14T17:38:38.321Z,37.20
2022-12-14T17:41:05.988Z,37.67
2022-12-14T17:43:33.272Z,37.47
2022-12-14T17:46:03.411Z,41.60
2022-12-14T17:48:30.165Z,40.07
2022-12-14T17:50:56.857Z,42.47
2022-12-14T17:53:29.791Z,42.00
2022-12-14T17:55:56.907Z,40.63
2022-12-14T17:58:23.586Z,40.63
2022-12-14T18:01:02.869Z,38.97
2022-12-14T18:03:32.587Z,44.03
2022-12-14T18:05:59.927Z,39.00
2022-12-14T18:08:26.961Z,36.27
2022-12-14T18:11:01.029Z,44.07
2022-12-14T18:13:28.681Z,41.87
2022-12-14T18:15:55.771Z,40.33
2022-12-14T18:18:25.093Z,42.20
2022-12-14T18:20:55.095Z,42.13
2022-12-14T18:23:22.361Z,38.63
2022-12-14T18:25:52.468Z,43.33
2022-12-14T18:28:20.041Z,44.77
2022-12-14T18:30:51.052Z,41.13
2022-12-14T18:33:23.372Z,45.77
2022-12-14T18:35:51.230Z,40.60
2022-12-14T18:38:17.971Z,41.57
2022-12-14T18:40:49.720Z,42.17
2022-12-14T18:43:23.590Z,75.47
2022-12-14T18:45:52.075Z,45.80
2022-12-14T18:48:18.956Z,47.27
2022-12-14T18:50:45.993Z,41.33
2022-12-14T18:53:18.764Z,43.07
2022-12-14T18:55:45.562Z,42.90
2022-12-14T18:58:17.384Z,48.87
2022-12-14T19:00:44.989Z,72.03
2022-12-14T19:03:11.875Z,73.97
2022-12-14T19:05:38.615Z,105.43
2022-12-14T19:08:05.354Z,99.67
2022-12-14T19:10:32.419Z,221.57
2022-12-14T19:12:59.530Z,183.33
2022-12-14T19:15:35.093Z,147.33
2022-12-14T19:18:01.839Z,136.87
2022-12-14T19:20:29.313Z,91.37
2022-12-14T19:22:55.938Z,47.50
2022-12-14T19:25:23.176Z,52.20
2022-12-14T19:30:39.307Z,46.27
2022-12-14T19:33:06.042Z,46.70
2022-12-14T19:35:32.710Z,45.77
2022-12-14T19:37:59.428Z,47.23
2022-12-14T19:40:26.626Z,46.93
2022-12-14T19:42:53.409Z,51.30
2022-12-14T19:45:20.185Z,49.07
2022-12-14T19:47:46.923Z,46.57
2022-12-14T19:50:14.753Z,93.10
2022-12-14T19:52:42.063Z,55.27
2022-12-14T19:55:09.267Z,45.10
2022-12-14T19:57:35.897Z,48.97
2022-12-14T20:00:02.736Z,50.20
2022-12-14T20:02:36.995Z,50.20
2022-12-14T20:05:04.665Z,56.90
2022-12-14T20:07:31.416Z,73.93
2022-12-14T20:09:58.238Z,47.87
2022-12-14T20:12:24.878Z,49.13
2022-12-14T20:14:51.759Z,49.60
2022-12-14T20:17:18.503Z,46.97
2022-12-14T20:19:45.203Z,45.77
2022-12-14T20:22:14.780Z,44.97
2022-12-14T20:24:42.203Z,44.53
2022-12-14T20:27:08.849Z,44.53
2022-12-14T20:29:35.570Z,43.67
2022-12-14T20:32:02.326Z,131.13
2022-12-14T20:34:30.685Z,62.80
2022-12-14T20:36:57.323Z,57.80
2022-12-14T20:39:23.980Z,51.43
2022-12-14T20:41:50.708Z,43.90
2022-12-14T20:44:17.482Z,46.67
2022-12-14T20:46:45.827Z,45.33
2022-12-14T20:49:15.697Z,45.13
2022-12-14T20:51:43.226Z,43.00
2022-12-14T20:54:15.376Z,45.13
2022-12-14T20:56:42.817Z,48.40
2022-12-14T20:59:10.195Z,44.90
2022-12-14T21:01:38.808Z,44.23
2022-12-14T21:04:06.531Z,45.03
2022-12-14T21:06:33.558Z,44.27
2022-12-14T21:09:09.478Z,48.63
2022-12-14T21:12:06.300Z,49.20
2022-12-14T21:14:35.401Z,47.87
2022-12-14T21:17:02.395Z,50.53
2022-12-14T21:19:29.147Z,58.67
2022-12-14T21:21:56.312Z,55.87
2022-12-14T21:27:16.658Z,49.47
2022-12-14T21:29:43.479Z,49.40
2022-12-14T21:32:10.447Z,48.93
2022-12-14T21:34:37.199Z,50.00
2022-12-14T21:37:03.789Z,51.37
2022-12-14T21:39:30.422Z,45.43
2022-12-14T21:42:15.755Z,50.97
2022-12-14T21:44:47.353Z,48.27
2022-12-14T21:47:20.342Z,48.90
2022-12-14T21:49:47.395Z,51.20
2022-12-14T21:52:20.163Z,49.60
2022-12-14T21:54:46.936Z,52.40
2022-12-14T21:57:33.628Z,50.10
2022-12-14T22:00:00.368Z,51.50
2022-12-14T22:02:27.612Z,51.07
2022-12-14T22:05:01.033Z,49.33
2022-12-14T22:07:33.110Z,47.33
2022-12-14T22:09:59.783Z,65.03
2022-12-14T22:12:26.759Z,53.77
2022-12-14T22:14:53.725Z,50.20
2022-12-14T22:17:20.420Z,55.37
2022-12-14T22:19:48.535Z,58.50
2022-12-14T22:22:16.486Z,52.33
2022-12-14T22:24:43.651Z,49.47
2022-12-14T22:27:11.815Z,51.97
2022-12-14T22:29:38.503Z,52.70
2022-12-14T22:32:06.125Z,50.90
2022-12-14T22:34:32.765Z,51.03
2022-12-14T22:36:59.400Z,48.67
2022-12-14T22:39:26.033Z,51.13
2022-12-14T22:41:52.622Z,51.67
2022-12-14T22:44:19.259Z,52.17
2022-12-14T22:46:45.916Z,50.30
2022-12-14T22:49:17.052Z,48.80
2022-12-14T22:51:43.833Z,48.27
2022-12-14T22:54:17.460Z,49.73
2022-12-14T22:56:46.707Z,50.03
2022-12-14T22:59:19.536Z,49.17
2022-12-14T23:01:50.111Z,50.47
2022-12-14T23:04:17.670Z,49.67
2022-12-14T23:06:44.711Z,46.73
2022-12-14T23:09:29.815Z,51.00
2022-12-14T23:12:21.036Z,47.87
2022-12-14T23:15:06.767Z,48.43
2022-12-14T23:17:51.913Z,49.57
2022-12-14T23:20:37.223Z,54.77
2022-12-14T23:23:26.586Z,52.60
2022-12-14T23:26:12.428Z,56.27
2022-12-14T23:28:57.974Z,53.33
2022-12-14T23:31:43.551Z,54.90
2022-12-14T23:34:28.685Z,54.43
2022-12-14T23:37:19.791Z,53.80
2022-12-14T23:40:06.498Z,52.77
2022-12-14T23:42:51.898Z,54.63
2022-12-14T23:45:36.906Z,55.70
2022-12-14T23:48:22.117Z,50.73
2022-12-14T23:51:07.151Z,49.03
2022-12-14T23:53:52.256Z,52.87
2022-12-14T23:56:37.260Z,49.47
2022-12-14T23:59:26.340Z,48.83
